Ahmedabad, India

5:51 PM IST on July 24, 2014 (GMT +0530)
Ahmedabad (VAAH) Elev 180 ft | 23.08 °N, 72.63 °E | Change Station

Current weather conditions updated 1 hour ago

Rain
Rain
77 °F
Feels Like 77 °F
N
14
Wind Variable Wind from SSW
Gusts 25 mph

Tomorrow is forecast to be Much Warmer than today. Few showers.

Today
High -- | Low -- °F
--% Chance of Precip.
Yesterday
High -- | Low -- °F
Precip. -- in
6:06 AM 7:25 PM
Waning Crescent, 5% visible
Pressure 29.53 in
Visibility 1.2 miles
Clouds Overcast 8000 ft
Scattered Clouds 2000 ft
Dew Point 77 °F
Humidity 100%
Rainfall 0.00 in
Snow Depth Not available.
UV 5 out of 12
Pollen Not available.
Air Quality Not available.
Flu Activity Not available.
METAR VAAH 241110Z 20012G22KT 2000 RA SCT010 SCT020 CBFEW030 OVC080 25/25 Q1000 TEMPO 1500

More Conditions Fewer Conditions

Pressure 29.53 in
Visibility 1.2 miles
Clouds Overcast 8000 ft
Scattered Clouds 2000 ft
Dew Point 77 °F
Humidity 100%
Rainfall 0.00 in
Snow Depth Not available.
UV 5 out of 12
Pollen Not available.
Air Quality Not available.
Flu Activity Not available.
METAR VAAH 241110Z 20012G22KT 2000 RA SCT010 SCT020 CBFEW030 OVC080 25/25 Q1000 TEMPO 1500

More Conditions Fewer Conditions

10-Day Weather Forecast

Almanac

Astronomy

Jul. 24, 2014 Rise Set
Actual Time 6:06 AM IST 7:25 PM IST
Civil Twilight 5:42 AM IST 7:49 PM IST
Nautical Twilight 5:13 AM IST 8:18 PM IST
Astronomical Twilight 4:42 AM IST 8:48 PM IST
Moon 3:50 AM IST 5:22 PM IST
Length of Visible Light 14h 07m
Length of Day
13h 18m
Tomorrow will be 0m 50s shorter.
Waning Crescent, 5% of the Moon is Illuminated
Today
Waning Crescent
Jul 26
New
Aug 3
First Quarter
Aug 10
Full
Aug 17
Last Quarter

Yesterday's Extremes

Country Highs Country Lows

Community

WunderPhotos

Upload Photos

1,736,988 photos uploaded!

Nearby

Snow Depth

Not available.

Earthquake Activity

City Distance Mag. Time & Date
No recent earthquake activity has been reported nearby.
Minimum magnitude displayed is 2.5.

Coastal Water Temperatures

Place Temperature
No Stations Reporting

Nearby Weather Stations

There are no personal weather stations in this area.